Time;durP1;ratioP1;P1;durP2;ratioP2;P2;SDS_P1;SDS_P2;PMS_P1;PMS_P2;Temp;Humidity;BMP_temperature;BMP_pressure;BME280_temperature;BME280_humidity;BME280_pressure;Samples;Min_cycle;Max_cycle;Signal;HPM_P1;HPM_P2
2022/06/12 00:02:24;;;;;;;;;;;;;;;18.53;85.90;94987.69;5093291;28;1016;-50
2022/06/12 00:04:50;;;;;;;;;;;;;;;18.53;86.09;94986.81;5093446;28;1230;-52
2022/06/12 00:07:17;;;;;;;;;;;;;;;18.58;85.19;94980.78;5110824;28;1205;-50
2022/06/12 00:09:43;;;;;;;;;;;;;;;18.52;85.68;94985.19;5113657;28;1909;-50
2022/06/12 00:12:10;;;;;;;;;;;;;;;18.47;84.92;94980.38;5113865;28;1060;-50
2022/06/12 00:14:36;;;;;;;;;;;;;;;18.46;84.72;94976.03;5113686;28;1012;-50
2022/06/12 00:17:02;;;;;;;;;;;;;;;18.42;84.82;94977.50;5113613;28;1108;-50
2022/06/12 00:19:30;;;;;;;;;;;;;;;18.56;84.01;94972.03;5116770;28;1081;-50
2022/06/12 00:21:57;;;;;;;;;;;;;;;18.67;83.28;94972.19;5117776;28;967;-50
2022/06/12 00:24:24;;;;;;;;;;;;;;;18.87;80.64;94966.69;5117881;28;1055;-50
2022/06/12 00:26:51;;;;;;;;;;;;;;;19.03;79.65;94962.66;5117703;28;1031;-50
2022/06/12 00:29:19;;;;;;;;;;;;;;;19.16;77.58;94964.44;5117924;28;1999;-50
2022/06/12 00:31:46;;;;;;;;;;;;;;;19.26;77.36;94958.53;5117684;28;1044;-50
2022/06/12 00:34:13;;;;;;;;;;;;;;;19.31;76.26;94962.25;5117776;27;1043;-50
2022/06/12 00:36:40;;;;;;;;;;;;;;;19.31;76.38;94961.38;5117424;28;1313;-50
2022/06/12 00:39:06;;;;;;;;;;;;;;;19.22;77.30;94963.56;5117597;28;1072;-50
2022/06/12 00:41:32;;;;;;;;;;;;;;;19.23;76.80;94957.06;5117523;28;1050;-50
2022/06/12 00:43:59;;;;;;;;;;;;;;;19.31;75.72;94959.53;5117528;28;1042;-50
2022/06/12 00:46:35;;;;;;;;;;;;;;;19.35;75.18;94961.78;5117529;28;1040;-50
2022/06/12 00:49:07;;;;;;;;;;;;;;;19.31;76.16;94948.69;5117754;28;1910;-50
2022/06/12 00:51:33;;;;;;;;;;;;;;;19.33;77.01;94955.75;5117593;28;1015;-50
2022/06/12 00:53:59;;;;;;;;;;;;;;;19.35;74.93;94956.38;5117201;28;983;-50
2022/06/12 00:56:30;;;;;;;;;;;;;;;19.40;75.12;94957.38;5117212;28;1169;-50
2022/06/12 00:59:03;;;;;;;;;;;;;;;19.28;75.83;94951.84;5117164;28;1087;-50
2022/06/12 01:01:32;;;;;;;;;;;;;;;19.34;74.90;94955.53;5117237;28;964;-50
2022/06/12 01:06:44;;;;;;;;;;;;;;;19.40;74.80;94951.13;5103778;28;1128;-50
2022/06/12 01:09:13;;;;;;;;;;;;;;;19.35;74.83;94951.78;5096452;28;1979;-50
2022/06/12 01:11:41;;;;;;;;;;;;;;;19.40;74.39;94948.41;5095428;28;1039;-50
2022/06/12 01:14:08;;;;;;;;;;;;;;;19.41;73.38;94945.47;5096364;28;1047;-50
2022/06/12 01:16:38;;;;;;;;;;;;;;;19.39;73.51;94944.88;5096710;28;992;-51
2022/06/12 01:19:06;;;;;;;;;;;;;;;19.41;73.80;94945.47;5096579;28;1000;-50
2022/06/12 01:21:33;;;;;;;;;;;;;;;19.42;73.61;94944.41;5095314;28;969;-50
2022/06/12 01:24:18;;;;;;;;;;;;;;;19.46;73.70;94950.22;5096173;28;1020;-50
2022/06/12 01:26:50;;;;;;;;;;;;;;;19.45;73.45;94946.69;5096209;28;965;-50
2022/06/12 01:29:33;;;;;;;;;;;;;;;19.46;73.04;94942.94;5095505;28;1887;-50
2022/06/12 01:32:15;;;;;;;;;;;;;;;19.50;72.56;94954.16;5095997;28;1083;-51
2022/06/12 01:35:10;;;;;;;;;;;;;;;19.48;73.18;94946.25;5095935;28;1087;-50
2022/06/12 01:37:50;;;;;;;;;;;;;;;19.50;72.46;94948.72;5082739;28;1850;-50
2022/06/12 01:40:28;;;;;;;;;;;;;;;19.40;73.41;94946.53;5096297;28;1008;-50
2022/06/12 01:43:01;;;;;;;;;;;;;;;19.41;73.36;94947.38;5095888;28;1070;-50
2022/06/12 01:45:34;;;;;;;;;;;;;;;19.46;73.33;94956.50;5094768;28;1046;-50
2022/06/12 01:48:00;;;;;;;;;;;;;;;19.47;72.48;94947.31;5096196;28;1997;-50
2022/06/12 01:50:32;;;;;;;;;;;;;;;19.48;72.85;94945.41;5096026;28;1048;-50
2022/06/12 01:53:17;;;;;;;;;;;;;;;19.41;74.69;94942.78;5095626;28;1086;-50
2022/06/12 01:55:44;;;;;;;;;;;;;;;19.28;74.09;94945.59;5095503;28;1095;-50
2022/06/12 01:58:22;;;;;;;;;;;;;;;19.34;73.35;94949.31;5095532;28;1007;-50
2022/06/12 02:00:52;;;;;;;;;;;;;;;19.35;73.43;94942.81;5095987;28;1007;-50
2022/06/12 02:03:18;;;;;;;;;;;;;;;19.29;73.34;94941.81;5095475;28;995;-50
2022/06/12 02:05:44;;;;;;;;;;;;;;;19.33;73.40;94947.63;5100189;28;1222;-50
2022/06/12 02:08:10;;;;;;;;;;;;;;;19.34;72.79;94949.31;5115952;28;1886;-50
2022/06/12 02:10:51;;;;;;;;;;;;;;;19.30;74.52;94946.19;5116249;28;1137;-50
2022/06/12 02:13:27;;;;;;;;;;;;;;;19.26;73.00;94947.69;5115956;28;948;-50
2022/06/12 02:16:08;;;;;;;;;;;;;;;19.25;74.25;94948.72;5115952;28;973;-50
2022/06/12 02:18:46;;;;;;;;;;;;;;;19.34;73.16;94952.84;5115607;27;1032;-50
2022/06/12 02:21:19;;;;;;;;;;;;;;;19.29;73.40;94950.78;5115668;28;999;-50
2022/06/12 02:23:52;;;;;;;;;;;;;;;19.32;73.22;94952.22;5115469;28;1032;-50
2022/06/12 02:26:21;;;;;;;;;;;;;;;19.30;73.51;94949.72;5115675;28;1083;-50
2022/06/12 02:28:52;;;;;;;;;;;;;;;19.20;74.24;94940.41;5115290;28;1989;-50
2022/06/12 02:31:21;;;;;;;;;;;;;;;19.15;74.44;94948.41;5115529;28;1004;-50
2022/06/12 02:33:50;;;;;;;;;;;;;;;19.17;74.63;94941.69;5115267;28;1015;-51
2022/06/12 02:36:20;;;;;;;;;;;;;;;19.19;73.76;94945.00;5115620;28;1048;-50
2022/06/12 02:39:07;;;;;;;;;;;;;;;19.26;73.28;94943.09;5115176;28;1107;-50
2022/06/12 02:41:36;;;;;;;;;;;;;;;19.13;74.97;94943.19;5115252;28;969;-50
2022/06/12 02:44:07;;;;;;;;;;;;;;;19.18;74.02;94940.66;5114989;28;1856;-50
2022/06/12 02:46:40;;;;;;;;;;;;;;;19.26;72.61;94937.66;5115117;28;1040;-50
2022/06/12 02:49:09;;;;;;;;;;;;;;;19.23;72.81;94942.69;5115110;28;1910;-50
2022/06/12 02:51:41;;;;;;;;;;;;;;;19.15;74.68;94941.09;5115014;28;1055;-50
2022/06/12 02:54:24;;;;;;;;;;;;;;;19.18;72.96;94939.81;5114765;28;958;-50
2022/06/12 02:57:02;;;;;;;;;;;;;;;19.20;74.00;94945.84;5115034;28;1004;-50
2022/06/12 02:59:46;;;;;;;;;;;;;;;19.16;73.98;94942.75;5114935;28;965;-51
2022/06/12 03:02:18;;;;;;;;;;;;;;;19.13;74.40;94948.63;5114950;28;1039;-50
2022/06/12 03:04:50;;;;;;;;;;;;;;;19.15;72.93;94951.94;5114656;28;949;-50
2022/06/12 03:07:17;;;;;;;;;;;;;;;19.21;73.30;94951.03;5096900;28;1212;-50
2022/06/12 03:09:43;;;;;;;;;;;;;;;19.19;72.93;94957.75;5094263;28;1975;-50
2022/06/12 03:12:09;;;;;;;;;;;;;;;19.18;74.67;94959.63;5094536;28;1055;-50
2022/06/12 03:14:35;;;;;;;;;;;;;;;19.19;73.80;94958.56;5094079;28;1040;-50
2022/06/12 03:17:02;;;;;;;;;;;;;;;19.11;73.05;94956.13;5094291;28;961;-50
2022/06/12 03:19:42;;;;;;;;;;;;;;;19.16;73.09;94966.31;5093889;28;925;-48
2022/06/12 03:22:23;;;;;;;;;;;;;;;19.07;73.79;94971.16;5094232;28;1098;-49
2022/06/12 03:25:12;;;;;;;;;;;;;;;19.10;73.71;94968.00;5093913;28;989;-48
2022/06/12 03:27:57;;;;;;;;;;;;;;;19.19;73.54;94969.41;5085984;28;1234;-48
2022/06/12 03:30:26;;;;;;;;;;;;;;;19.15;74.55;94978.22;5093993;28;1016;-48
2022/06/12 03:32:58;;;;;;;;;;;;;;;19.10;74.38;94968.00;5094198;28;1036;-49
2022/06/12 03:35:34;;;;;;;;;;;;;;;19.11;73.80;94970.50;5093865;28;980;-49
2022/06/12 03:38:00;;;;;;;;;;;;;;;19.14;72.96;94968.41;5093961;28;937;-48
2022/06/12 03:40:26;;;;;;;;;;;;;;;19.23;72.18;94970.63;5093577;28;973;-48
2022/06/12 03:43:06;;;;;;;;;;;;;;;19.27;71.76;94958.31;5093849;28;1068;-48
2022/06/12 03:45:42;;;;;;;;;;;;;;;19.25;72.45;94963.09;5093752;28;1028;-48
2022/06/12 03:48:14;;;;;;;;;;;;;;;19.27;72.29;94971.03;5093846;28;1906;-48
2022/06/12 03:50:46;;;;;;;;;;;;;;;19.30;71.88;94966.00;5093560;28;1142;-48
2022/06/12 03:53:36;;;;;;;;;;;;;;;19.28;72.30;94968.09;5092890;28;957;-48
2022/06/12 03:58:57;;;;;;;;;;;;;;;19.36;71.00;94969.69;5093687;28;960;-48
2022/06/12 04:01:25;;;;;;;;;;;;;;;19.40;71.20;94965.50;5093265;28;988;-48
2022/06/12 04:03:53;;;;;;;;;;;;;;;19.44;70.84;94971.31;5093503;28;1024;-48
2022/06/12 04:06:21;;;;;;;;;;;;;;;19.45;70.59;94971.09;5102821;28;1216;-49
2022/06/12 04:08:56;;;;;;;;;;;;;;;19.46;70.75;94974.63;5113939;28;1906;-49
2022/06/12 04:11:24;;;;;;;;;;;;;;;19.49;71.21;94968.78;5113700;28;916;-49
2022/06/12 04:13:50;;;;;;;;;;;;;;;19.54;70.78;94963.53;5113791;28;969;-48
2022/06/12 04:16:22;;;;;;;;;;;;;;;19.56;70.42;94974.13;5113601;28;962;-48
2022/06/12 04:18:48;;;;;;;;;;;;;;;19.56;70.31;94974.97;5113993;28;953;-48
2022/06/12 04:21:37;;;;;;;;;;;;;;;19.47;71.12;94974.41;5113731;28;1023;-49
2022/06/12 04:24:16;;;;;;;;;;;;;;;19.51;71.05;94974.81;5102977;28;1318;-48
2022/06/12 04:26:49;;;;;;;;;;;;;;;19.48;72.39;94976.09;5113387;28;949;-48
2022/06/12 04:29:15;;;;;;;;;;;;;;;19.53;70.93;94970.00;5113761;28;1988;-48
2022/06/12 04:31:43;;;;;;;;;;;;;;;19.64;70.78;94971.16;5113369;28;1024;-48
2022/06/12 04:34:12;;;;;;;;;;;;;;;19.67;69.81;94971.56;5113725;28;1027;-48
2022/06/12 04:36:39;;;;;;;;;;;;;;;19.65;70.68;94979.09;5113413;28;1025;-48
2022/06/12 04:39:05;;;;;;;;;;;;;;;19.65;70.51;94978.22;5112331;28;977;-48
2022/06/12 04:41:35;;;;;;;;;;;;;;;19.65;70.76;94981.78;5113248;28;1016;-48
2022/06/12 04:44:03;;;;;;;;;;;;;;;19.73;69.95;94977.16;5113529;28;1036;-48
2022/06/12 04:46:29;;;;;;;;;;;;;;;19.65;69.99;94984.50;5113300;28;1020;-48
2022/06/12 04:48:56;;;;;;;;;;;;;;;19.65;69.72;94986.38;5113504;28;1992;-49
2022/06/12 04:51:22;;;;;;;;;;;;;;;19.61;70.03;94975.13;5113339;28;1113;-48
2022/06/12 04:53:49;;;;;;;;;;;;;;;19.60;70.95;94980.78;5113172;28;1024;-48
2022/06/12 04:56:17;;;;;;;;;;;;;;;19.58;72.09;94989.16;5113273;28;1091;-48
2022/06/12 04:58:43;;;;;;;;;;;;;;;19.54;71.62;94977.09;5113514;28;972;-48
2022/06/12 05:01:10;;;;;;;;;;;;;;;19.50;71.81;94983.97;5113371;28;984;-48
2022/06/12 05:03:36;;;;;;;;;;;;;;;19.41;72.90;94988.84;5113267;28;1072;-48
2022/06/12 05:06:03;;;;;;;;;;;;;;;19.46;72.03;94996.31;5109203;28;1329;-48
2022/06/12 05:08:29;;;;;;;;;;;;;;;19.53;72.28;95002.53;5096934;28;1915;-49
2022/06/12 05:10:55;;;;;;;;;;;;;;;19.47;72.70;95001.53;5096871;28;1034;-49
2022/06/12 05:13:21;;;;;;;;;;;;;;;19.41;73.17;95001.59;5096710;28;1049;-49
2022/06/12 05:15:48;;;;;;;;;;;;;;;19.45;72.53;95009.06;5096674;28;1989;-48
2022/06/12 05:18:15;;;;;;;;;;;;;;;19.49;72.81;95006.72;5095251;28;1095;-48
2022/06/12 05:20:42;;;;;;;;;;;;;;;19.45;72.91;95008.22;5095195;28;1096;-49
2022/06/12 05:23:08;;;;;;;;;;;;;;;19.50;73.40;95006.53;5096257;28;1180;-49
2022/06/12 05:25:34;;;;;;;;;;;;;;;19.40;74.38;95013.47;5096388;28;1040;-49
2022/06/12 05:28:03;;;;;;;;;;;;;;;19.38;75.43;95008.25;5094871;28;2011;-49
2022/06/12 05:30:30;;;;;;;;;;;;;;;19.38;74.52;95005.56;5096238;28;1012;-49
2022/06/12 05:32:58;;;;;;;;;;;;;;;19.33;75.28;95008.13;5096373;28;1625;-49
2022/06/12 05:35:24;;;;;;;;;;;;;;;19.43;73.56;95002.19;5094907;28;1091;-49
2022/06/12 05:37:51;;;;;;;;;;;;;;;19.44;74.20;95004.66;5094819;28;1088;-49
2022/06/12 05:40:20;;;;;;;;;;;;;;;19.53;72.42;95005.25;5096343;28;1049;-49
2022/06/12 05:42:46;;;;;;;;;;;;;;;19.54;73.17;95006.06;5094624;28;822;-49
2022/06/12 05:45:15;;;;;;;;;;;;;;;19.63;72.89;95010.16;5094779;28;1637;-49
2022/06/12 05:47:46;;;;;;;;;;;;;;;19.76;71.94;95015.50;5094527;28;1107;-49
2022/06/12 05:50:12;;;;;;;;;;;;;;;19.86;72.21;95021.28;5094558;28;2638;-49
2022/06/12 05:52:39;;;;;;;;;;;;;;;20.01;71.44;95015.50;5094656;28;1496;-49
2022/06/12 05:55:06;;;;;;;;;;;;;;;20.15;70.82;95020.81;5095918;28;1518;-49
2022/06/12 05:57:32;;;;;;;;;;;;;;;20.17;71.87;95024.97;5095586;28;1040;-50
2022/06/12 05:59:58;;;;;;;;;;;;;;;20.26;71.33;95025.47;5095809;28;1162;-49
2022/06/12 06:02:25;;;;;;;;;;;;;;;20.31;71.09;95013.97;5095549;28;956;-48
2022/06/12 06:04:51;;;;;;;;;;;;;;;20.42;70.77;95016.75;5094197;28;1357;-49
2022/06/12 06:07:19;;;;;;;;;;;;;;;20.50;70.33;95009.38;5113348;28;1207;-49
2022/06/12 06:09:45;;;;;;;;;;;;;;;20.53;70.72;95017.06;5115810;28;1901;-49
2022/06/12 06:12:11;;;;;;;;;;;;;;;20.53;71.45;95011.63;5115951;28;953;-49
2022/06/12 06:14:37;;;;;;;;;;;;;;;20.58;70.11;95003.63;5114803;28;1115;-49
2022/06/12 06:17:04;;;;;;;;;;;;;;;20.74;71.10;95002.22;5113985;28;1696;-49
2022/06/12 06:19:31;;;;;;;;;;;;;;;20.99;69.67;95005.66;5115539;28;976;-49
2022/06/12 06:21:58;;;;;;;;;;;;;;;21.37;69.85;94998.22;5115731;28;1038;-49
2022/06/12 06:24:24;;;;;;;;;;;;;;;21.52;69.02;94990.47;5113968;28;1028;-49
2022/06/12 06:26:50;;;;;;;;;;;;;;;21.51;67.17;94988.00;5115901;28;992;-49
2022/06/12 06:29:16;;;;;;;;;;;;;;;21.55;68.34;95003.63;5115316;28;1913;-49
2022/06/12 06:31:42;;;;;;;;;;;;;;;21.58;68.97;94999.59;5115486;28;910;-49
2022/06/12 06:34:09;;;;;;;;;;;;;;;21.63;67.98;95002.47;5115271;28;957;-50
2022/06/12 06:36:35;;;;;;;;;;;;;;;21.75;67.68;95007.91;5115358;28;1004;-49
2022/06/12 06:39:02;;;;;;;;;;;;;;;21.96;67.14;95004.59;5115154;28;1087;-49
2022/06/12 06:41:28;;;;;;;;;;;;;;;22.47;66.82;95009.59;5115323;28;1016;-49
2022/06/12 06:46:39;;;;;;;;;;;;;;;22.61;66.27;95011.84;5115064;28;1012;-49
2022/06/12 06:49:06;;;;;;;;;;;;;;;22.75;64.70;95015.13;5113691;28;1906;-50
2022/06/12 06:51:32;;;;;;;;;;;;;;;22.59;65.07;95013.97;5114075;28;984;-49
2022/06/12 06:53:58;;;;;;;;;;;;;;;22.44;66.68;95020.97;5114872;28;991;-49
2022/06/12 06:56:25;;;;;;;;;;;;;;;22.32;65.65;95013.63;5115333;28;1076;-50
2022/06/12 06:58:51;;;;;;;;;;;;;;;22.31;66.61;95011.16;5114766;28;1032;-50
2022/06/12 07:01:17;;;;;;;;;;;;;;;22.39;67.55;95011.63;5113940;28;1757;-49
2022/06/12 07:03:44;;;;;;;;;;;;;;;22.37;66.58;95012.94;5114668;28;1039;-49
2022/06/12 07:06:11;;;;;;;;;;;;;;;22.58;66.19;95016.94;5106143;28;1176;-49
2022/06/12 07:08:38;;;;;;;;;;;;;;;22.92;64.52;95011.66;5094426;28;1922;-49
2022/06/12 07:11:04;;;;;;;;;;;;;;;23.41;65.02;95013.97;5094900;28;987;-49
2022/06/12 07:13:31;;;;;;;;;;;;;;;23.99;64.63;95012.81;5092845;28;1075;-49
2022/06/12 07:15:57;;;;;;;;;;;;;;;24.08;64.06;95013.22;5076502;28;1440;-49
2022/06/12 07:18:23;;;;;;;;;;;;;;;24.28;64.01;95016.28;5092987;28;1029;-50
2022/06/12 07:20:52;;;;;;;;;;;;;;;24.47;64.54;95025.03;5093272;28;1615;-51
2022/06/12 07:23:20;;;;;;;;;;;;;;;24.57;62.88;95018.91;5076356;28;1001;-50
2022/06/12 07:25:49;;;;;;;;;;;;;;;24.55;62.48;95021.88;5093192;28;1862;-51
2022/06/12 07:28:16;;;;;;;;;;;;;;;24.56;62.12;95019.97;5093944;28;2001;-51
2022/06/12 07:30:43;;;;;;;;;;;;;;;24.24;63.74;95023.28;5094208;28;1095;-50
2022/06/12 07:33:10;;;;;;;;;;;;;;;23.71;65.70;95035.50;5093061;28;1503;-50
2022/06/12 07:35:38;;;;;;;;;;;;;;;23.37;66.54;95036.28;5092416;28;1700;-51
2022/06/12 07:38:05;;;;;;;;;;;;;;;23.20;67.98;95024.47;5092822;28;1116;-51
2022/06/12 07:40:35;;;;;;;;;;;;;;;22.96;67.52;95032.72;5092522;28;1000;-50
2022/06/12 07:43:02;;;;;;;;;;;;;;;22.78;68.42;95022.81;5093929;28;1703;-50
2022/06/12 07:45:30;;;;;;;;;;;;;;;22.76;68.93;95029.56;5092579;28;1659;-51
2022/06/12 07:47:57;;;;;;;;;;;;;;;22.98;68.52;95032.47;5093990;28;1633;-51
2022/06/12 07:50:24;;;;;;;;;;;;;;;23.03;68.61;95039.94;5093442;28;1921;-50
2022/06/12 07:52:50;;;;;;;;;;;;;;;22.79;67.11;95035.38;5093900;28;1561;-50
2022/06/12 07:55:19;;;;;;;;;;;;;;;22.57;70.01;95029.72;5075727;28;1500;-51
2022/06/12 07:57:46;;;;;;;;;;;;;;;22.49;68.51;95035.53;5093507;28;1099;-50
2022/06/12 08:00:13;;;;;;;;;;;;;;;22.45;66.68;95028.91;5093714;28;1549;-51
2022/06/12 08:02:41;;;;;;;;;;;;;;;22.42;67.50;95046.56;5093738;28;1056;-50
2022/06/12 08:05:08;;;;;;;;;;;;;;;22.42;68.40;95043.84;5092167;28;1223;-51
2022/06/12 08:07:34;;;;;;;;;;;;;;;22.25;68.43;95042.88;5072197;28;1166;-50
2022/06/12 08:10:03;;;;;;;;;;;;;;;22.17;68.78;95043.22;5071837;28;1983;-50
2022/06/12 08:12:31;;;;;;;;;;;;;;;22.28;67.34;95045.13;5073242;28;1188;-51
2022/06/12 08:14:58;;;;;;;;;;;;;;;22.25;68.09;95040.16;5072131;28;1633;-50
2022/06/12 08:17:25;;;;;;;;;;;;;;;22.23;69.19;95045.84;5072171;28;1897;-50
2022/06/12 08:22:36;;;;;;;;;;;;;;;22.06;70.66;95044.84;5073043;28;1083;-50
2022/06/12 08:25:03;;;;;;;;;;;;;;;22.10;68.95;95042.50;5071614;28;1044;-51
2022/06/12 08:27:29;;;;;;;;;;;;;;;22.05;70.52;95036.94;5073309;28;1072;-50
2022/06/12 08:29:56;;;;;;;;;;;;;;;21.98;69.71;95043.31;5071623;28;1906;-50
2022/06/12 08:32:23;;;;;;;;;;;;;;;21.85;70.33;95043.53;5073048;28;937;-50
2022/06/12 08:34:51;;;;;;;;;;;;;;;21.76;71.34;95050.38;5072964;28;1804;-50
2022/06/12 08:37:23;;;;;;;;;;;;;;;21.66;70.94;95059.09;5073012;28;1028;-50
2022/06/12 08:39:50;;;;;;;;;;;;;;;21.62;72.82;95060.63;5074856;28;1562;-50
2022/06/12 08:42:24;;;;;;;;;;;;;;;21.62;72.64;95052.47;5075787;28;1033;-50
2022/06/12 08:44:53;;;;;;;;;;;;;;;21.64;72.30;95050.34;5075860;28;1558;-50
2022/06/12 08:47:36;;;;;;;;;;;;;;;21.63;72.88;95049.53;5076940;28;1063;-50
2022/06/12 08:50:04;;;;;;;;;;;;;;;21.58;72.09;95048.56;5075344;28;1997;-50
2022/06/12 08:52:39;;;;;;;;;;;;;;;21.57;71.59;95061.34;5076784;28;1451;-51
2022/06/12 08:55:19;;;;;;;;;;;;;;;21.49;72.99;95058.94;5074873;28;1887;-51
2022/06/12 08:57:56;;;;;;;;;;;;;;;21.50;73.10;95066.03;5076716;28;1011;-50
2022/06/12 09:00:25;;;;;;;;;;;;;;;21.42;75.84;95071.78;5075902;28;1053;-51
2022/06/12 09:02:52;;;;;;;;;;;;;;;21.29;77.51;95071.97;5076334;28;1060;-53
2022/06/12 09:05:21;;;;;;;;;;;;;;;21.27;77.23;95077.63;5078780;28;1567;-49
2022/06/12 09:08:00;;;;;;;;;;;;;;;21.26;77.42;95076.78;5117115;28;1518;-49
2022/06/12 09:10:31;;;;;;;;;;;;;;;21.23;80.08;95074.53;5098762;28;2463;-50
2022/06/12 09:13:12;;;;;;;;;;;;;;;21.15;81.19;95074.88;5116100;28;1404;-50
2022/06/12 09:15:44;;;;;;;;;;;;;;;21.18;78.48;95073.56;5116675;28;1052;-50
2022/06/12 09:18:19;;;;;;;;;;;;;;;21.20;79.89;95066.00;5099204;28;1456;-50
2022/06/12 09:21:12;;;;;;;;;;;;;;;21.31;80.17;95070.66;5115512;28;1071;-50
2022/06/12 09:23:48;;;;;;;;;;;;;;;21.35;80.28;95074.59;5113002;28;1225;-51
2022/06/12 09:26:21;;;;;;;;;;;;;;;21.38;81.65;95074.13;5116724;28;1036;-51
2022/06/12 09:29:00;;;;;;;;;;;;;;;21.39;83.32;95077.69;5116733;28;1909;-51
2022/06/12 09:31:32;;;;;;;;;;;;;;;21.40;80.58;95076.63;5116656;28;975;-51
2022/06/12 09:34:17;;;;;;;;;;;;;;;21.37;80.09;95071.66;5116870;28;1025;-51
2022/06/12 09:38:18;;;;;;;;;;;;;;;21.37;78.76;95079.81;5116604;28;1515;-53
2022/06/12 09:40:01;;;;;;;;;;;;;;;21.33;80.40;95076.72;5116504;28;1695;-51
2022/06/12 09:42:35;;;;;;;;;;;;;;;21.34;78.78;95077.53;5115248;28;2049;-51
2022/06/12 09:45:05;;;;;;;;;;;;;;;21.36;79.54;95073.53;5116637;28;1175;-51
2022/06/12 09:47:31;;;;;;;;;;;;;;;21.37;77.99;95077.91;5116475;28;1021;-51
2022/06/12 09:50:09;;;;;;;;;;;;;;;21.38;78.60;95079.56;5116459;28;2000;-51
2022/06/12 09:52:38;;;;;;;;;;;;;;;21.39;79.16;95086.66;5115184;28;1048;-51
2022/06/12 09:55:12;;;;;;;;;;;;;;;21.36;78.72;95075.41;5115930;28;1111;-51
2022/06/12 09:57:44;;;;;;;;;;;;;;;21.40;77.92;95084.78;5115000;28;1071;-50
2022/06/12 10:00:23;;;;;;;;;;;;;;;21.38;77.44;95076.84;5116178;28;1415;-51
2022/06/12 10:02:52;;;;;;;;;;;;;;;21.49;78.88;95086.13;5114924;28;1253;-51
2022/06/12 10:05:18;;;;;;;;;;;;;;;21.46;83.21;95086.63;5114601;28;1249;-51
2022/06/12 10:07:53;;;;;;;;;;;;;;;21.49;81.89;95086.13;5095724;28;1036;-51
2022/06/12 10:10:33;;;;;;;;;;;;;;;21.46;81.04;95086.63;5095520;28;1906;-51
2022/06/12 10:13:02;;;;;;;;;;;;;;;21.41;83.09;95089.16;5096195;28;1819;-51
2022/06/12 10:15:35;;;;;;;;;;;;;;;21.36;84.19;95091.72;5094161;28;2692;-51
2022/06/12 10:18:06;;;;;;;;;;;;;;;21.30;84.77;95093.47;5095603;28;1000;-51
2022/06/12 10:20:38;;;;;;;;;;;;;;;21.33;85.27;95093.03;5095384;28;1091;-51
2022/06/12 10:23:04;;;;;;;;;;;;;;;21.27;84.91;95093.94;5095324;28;1048;-51
2022/06/12 10:25:33;;;;;;;;;;;;;;;21.15;84.25;95099.34;5095125;28;1048;-51
2022/06/12 10:28:25;;;;;;;;;;;;;;;20.97;84.01;95091.19;5095108;28;1099;-51
2022/06/12 10:31:07;;;;;;;;;;;;;;;20.82;83.80;95094.28;5092286;28;1859;-51
2022/06/12 10:33:46;;;;;;;;;;;;;;;20.61;86.31;95099.09;5095289;28;1562;-50
2022/06/12 10:36:22;;;;;;;;;;;;;;;20.60;85.87;95085.72;5094882;28;937;-50
2022/06/12 10:38:49;;;;;;;;;;;;;;;20.53;86.03;95087.69;5095016;28;1095;-50
2022/06/12 10:41:24;;;;;;;;;;;;;;;20.65;84.56;95085.91;5095012;28;1055;-50
2022/06/12 10:43:52;;;;;;;;;;;;;;;20.59;86.94;95095.75;5095173;28;1054;-50
2022/06/12 10:46:22;;;;;;;;;;;;;;;20.66;86.96;95077.53;5094715;28;1094;-51
2022/06/12 10:49:05;;;;;;;;;;;;;;;20.90;86.11;95082.28;5093656;28;1987;-50
2022/06/12 10:51:35;;;;;;;;;;;;;;;21.01;85.77;95079.63;5094544;28;1986;-51
2022/06/12 10:54:21;;;;;;;;;;;;;;;20.96;87.48;95082.22;5094527;28;1059;-51
2022/06/12 10:56:50;;;;;;;;;;;;;;;20.92;88.51;95080.97;5094433;28;1257;-50
2022/06/12 10:59:16;;;;;;;;;;;;;;;20.97;87.63;95078.41;5093402;28;826;-50
2022/06/12 11:01:51;;;;;;;;;;;;;;;21.05;88.12;95078.09;5109779;28;2641;-51
2022/06/12 11:04:25;;;;;;;;;;;;;;;21.08;89.50;95074.13;5094813;28;1514;-51
2022/06/12 11:07:03;;;;;;;;;;;;;;;21.09;89.22;95081.19;5108215;28;1234;-50
2022/06/12 11:09:31;;;;;;;;;;;;;;;21.28;87.01;95073.03;5114835;28;1910;-50
2022/06/12 11:12:00;;;;;;;;;;;;;;;21.42;85.58;95077.22;5114576;28;996;-51
2022/06/12 11:14:32;;;;;;;;;;;;;;;21.54;84.80;95074.56;5114665;28;1087;-50
2022/06/12 11:17:17;;;;;;;;;;;;;;;21.64;83.38;95066.66;5114495;28;1103;-50
2022/06/12 11:19:44;;;;;;;;;;;;;;;21.70;83.63;95065.72;5114632;28;1070;-51
2022/06/12 11:22:10;;;;;;;;;;;;;;;21.68;82.64;95067.84;5113432;28;1455;-51
2022/06/12 11:24:36;;;;;;;;;;;;;;;21.65;83.06;95065.63;5114131;28;1071;-51
2022/06/12 11:27:08;;;;;;;;;;;;;;;21.70;83.78;95062.19;5114319;28;1051;-51
2022/06/12 11:29:47;;;;;;;;;;;;;;;21.77;83.42;95063.75;5114258;28;1992;-51
2022/06/12 11:32:13;;;;;;;;;;;;;;;21.92;81.03;95071.47;5113287;28;1590;-51
2022/06/12 11:35:07;;;;;;;;;;;;;;;21.97;80.33;95065.34;5114411;27;1028;-52
2022/06/12 11:37:40;;;;;;;;;;;;;;;22.00;80.44;95070.28;5114364;28;990;-51
2022/06/12 11:40:09;;;;;;;;;;;;;;;22.02;81.66;95077.19;5114596;28;964;-50
2022/06/12 11:42:55;;;;;;;;;;;;;;;22.03;80.69;95083.44;5114124;28;1649;-50
2022/06/12 11:45:30;;;;;;;;;;;;;;;22.07;81.08;95083.81;5113123;28;1491;-51
2022/06/12 11:47:57;;;;;;;;;;;;;;;22.10;81.82;95083.31;5114228;28;1730;-50
2022/06/12 11:50:35;;;;;;;;;;;;;;;22.16;79.00;95085.94;5113977;28;1894;-51
2022/06/12 11:53:01;;;;;;;;;;;;;;;22.19;80.59;95085.47;5113005;28;1627;-50
2022/06/12 11:55:41;;;;;;;;;;;;;;;22.31;79.54;95082.81;5113836;28;1027;-50
2022/06/12 11:58:21;;;;;;;;;;;;;;;22.41;80.79;95080.31;5112884;28;945;-51
2022/06/12 12:01:10;;;;;;;;;;;;;;;22.44;80.58;95076.28;5114100;28;1047;-49
2022/06/12 12:03:47;;;;;;;;;;;;;;;22.45;81.10;95082.56;5113688;28;1367;-49
2022/06/12 12:06:20;;;;;;;;;;;;;;;22.39;81.92;95084.34;5094860;28;1522;-50
2022/06/12 12:08:57;;;;;;;;;;;;;;;22.31;82.59;95090.13;5073052;28;1957;-51
2022/06/12 12:11:27;;;;;;;;;;;;;;;22.19;82.46;95079.19;5073275;28;992;-50
2022/06/12 12:13:55;;;;;;;;;;;;;;;22.16;81.47;95079.69;5072566;28;956;-51
2022/06/12 12:16:31;;;;;;;;;;;;;;;22.13;81.85;95080.16;5072147;28;1028;-51
2022/06/12 12:19:01;;;;;;;;;;;;;;;22.14;82.39;95079.06;5073076;28;1064;-51
2022/06/12 12:21:33;;;;;;;;;;;;;;;22.26;82.86;95074.50;5073540;28;987;-51
2022/06/12 12:24:01;;;;;;;;;;;;;;;22.44;81.65;95072.72;5071913;28;1023;-51
2022/06/12 12:26:31;;;;;;;;;;;;;;;22.61;81.31;95073.66;5073361;28;1522;-51
2022/06/12 12:29:00;;;;;;;;;;;;;;;22.73;80.07;95068.22;5072992;28;1902;-51
2022/06/12 12:31:28;;;;;;;;;;;;;;;22.74;79.58;95067.13;5073215;28;1017;-51
2022/06/12 12:33:56;;;;;;;;;;;;;;;22.70;79.49;95068.69;5071725;28;1523;-51
2022/06/12 12:42:21;;;;;;;;;;;;;;;22.02;84.87;95090.81;5072983;28;1087;-50
2022/06/12 12:44:49;;;;;;;;;;;;;;;21.92;82.72;95078.81;5071906;28;1586;-50
2022/06/12 12:47:17;;;;;;;;;;;;;;;21.80;80.90;95067.91;5073026;28;1091;-50
2022/06/12 12:49:44;;;;;;;;;;;;;;;21.66;82.94;95069.16;5072678;28;2059;-51
2022/06/12 12:52:16;;;;;;;;;;;;;;;21.70;82.10;95064.91;5072003;28;1689;-51
2022/06/12 12:54:48;;;;;;;;;;;;;;;21.78;82.31;95067.31;5072778;28;1040;-51
2022/06/12 12:57:16;;;;;;;;;;;;;;;21.95;82.57;95056.56;5073128;28;1800;-51
2022/06/12 12:59:45;;;;;;;;;;;;;;;22.20;84.84;95059.91;5072696;28;1068;-51
2022/06/12 13:02:18;;;;;;;;;;;;;;;22.58;83.03;95055.09;5072842;28;1032;-51
2022/06/12 13:04:45;;;;;;;;;;;;;;;22.92;80.14;95060.72;5072845;28;1671;-51
2022/06/12 13:07:27;;;;;;;;;;;;;;;23.10;81.67;95060.56;5088335;28;2456;-51
2022/06/12 13:10:09;;;;;;;;;;;;;;;23.08;79.62;95057.25;5113302;28;1905;-51
2022/06/12 13:12:54;;;;;;;;;;;;;;;23.00;80.28;95055.69;5113134;28;1569;-51
2022/06/12 13:15:33;;;;;;;;;;;;;;;22.87;77.53;95058.69;5113231;28;1621;-51
2022/06/12 13:18:21;;;;;;;;;;;;;;;22.67;76.56;95050.94;5113253;28;1025;-51
2022/06/12 13:20:48;;;;;;;;;;;;;;;22.55;79.16;95050.09;5113450;28;1103;-51
2022/06/12 13:23:20;;;;;;;;;;;;;;;22.55;80.30;95050.09;5113157;28;1033;-51
2022/06/12 13:25:49;;;;;;;;;;;;;;;22.56;80.24;95046.31;5114402;28;1823;-51
2022/06/12 13:28:20;;;;;;;;;;;;;;;22.60;78.02;95042.03;5117127;28;995;-51
2022/06/12 13:30:47;;;;;;;;;;;;;;;22.61;76.69;95035.50;5115509;28;1122;-50
2022/06/12 13:33:20;;;;;;;;;;;;;;;22.67;76.64;95037.31;5116861;28;991;-50
2022/06/12 13:35:52;;;;;;;;;;;;;;;22.59;75.41;95052.13;5116332;28;1696;-51